ENBR

Bergen , Flesland Airport

Bergen, Norway
METAR ENBR 190050Z 15008KT 9999 BKN080 07/M03 Q1008 RMK WIND 1200FT 13026KT
Observed Flight Rules
Dec-19 @ 00:50 UTC (46 minutes ago) Visual Flight Rules
Wind Visibility Clouds
150° at 8 knots 10,000+ meters
  • Broken at 8,000' AGL
Temperatures Readings
Current 7°C / 45°F
Dewpoint -3°C / 27°F
Humidity 49%
Altimeter 29.76" Hg
Pressure 1008 hPa
Elevation 50
METAR ENBR 190050Z 15008KT 9999 BKN080 07/M03 Q1008 RMK WIND 1200FT 13026KT
Observed Flight Rules
Dec-19 @ 00:50 UTC
(46 minutes ago)
VFR
Wind Visibility
150° at 8 knots 10,000+ meters
Clouds
  • Broken at 8,000' AGL
Temperature Dewpoint
7°C / 45°F -3°C / 27°F
Humidity Altimeter Pressure
49% 29.76" Hg 1008 hPa